sensor_id;sensor_type;location;lat;lon;timestamp;P1;durP1;ratioP1;P2;durP2;ratioP2
26181;SDS011;13927;51.534;11.866;2022-10-23T00:01:31;13.40;;;8.98;;
26181;SDS011;13927;51.534;11.866;2022-10-23T00:04:02;13.10;;;9.30;;
26181;SDS011;13927;51.534;11.866;2022-10-23T00:06:43;12.38;;;9.38;;
26181;SDS011;13927;51.534;11.866;2022-10-23T00:09:10;11.82;;;8.38;;
26181;SDS011;13927;51.534;11.866;2022-10-23T00:11:38;14.07;;;8.95;;
26181;SDS011;13927;51.534;11.866;2022-10-23T00:14:05;15.43;;;9.80;;
26181;SDS011;13927;51.534;11.866;2022-10-23T00:16:32;9.15;;;7.65;;
26181;SDS011;13927;51.534;11.866;2022-10-23T00:18:58;9.77;;;6.35;;
26181;SDS011;13927;51.534;11.866;2022-10-23T00:21:24;7.90;;;6.72;;
26181;SDS011;13927;51.534;11.866;2022-10-23T00:23:50;8.35;;;6.93;;
26181;SDS011;13927;51.534;11.866;2022-10-23T00:26:17;13.27;;;7.78;;
26181;SDS011;13927;51.534;11.866;2022-10-23T00:28:44;10.13;;;7.53;;
26181;SDS011;13927;51.534;11.866;2022-10-23T00:31:12;8.55;;;7.50;;
26181;SDS011;13927;51.534;11.866;2022-10-23T00:33:39;7.68;;;6.88;;
26181;SDS011;13927;51.534;11.866;2022-10-23T00:36:06;11.68;;;8.75;;
26181;SDS011;13927;51.534;11.866;2022-10-23T00:38:35;11.93;;;9.70;;
26181;SDS011;13927;51.534;11.866;2022-10-23T00:41:02;13.27;;;9.93;;
26181;SDS011;13927;51.534;11.866;2022-10-23T00:43:29;14.93;;;9.13;;
26181;SDS011;13927;51.534;11.866;2022-10-23T00:45:56;9.77;;;8.57;;
26181;SDS011;13927;51.534;11.866;2022-10-23T00:48:22;10.25;;;8.02;;
26181;SDS011;13927;51.534;11.866;2022-10-23T00:50:50;11.95;;;9.15;;
26181;SDS011;13927;51.534;11.866;2022-10-23T00:53:16;9.63;;;8.30;;
26181;SDS011;13927;51.534;11.866;2022-10-23T00:55:45;10.13;;;7.57;;
26181;SDS011;13927;51.534;11.866;2022-10-23T00:58:13;10.63;;;7.90;;
26181;SDS011;13927;51.534;11.866;2022-10-23T01:03:26;9.73;;;8.27;;
26181;SDS011;13927;51.534;11.866;2022-10-23T01:08:40;10.68;;;8.13;;
26181;SDS011;13927;51.534;11.866;2022-10-23T01:11:23;9.85;;;8.60;;
26181;SDS011;13927;51.534;11.866;2022-10-23T01:22:11;10.65;;;8.05;;
26181;SDS011;13927;51.534;11.866;2022-10-23T01:28:27;9.30;;;7.15;;
26181;SDS011;13927;51.534;11.866;2022-10-23T01:31:01;9.80;;;6.97;;
26181;SDS011;13927;51.534;11.866;2022-10-23T01:33:38;13.18;;;7.75;;
26181;SDS011;13927;51.534;11.866;2022-10-23T01:36:11;9.57;;;8.63;;
26181;SDS011;13927;51.534;11.866;2022-10-23T01:38:41;9.30;;;8.40;;
26181;SDS011;13927;51.534;11.866;2022-10-23T01:41:34;9.82;;;8.45;;
26181;SDS011;13927;51.534;11.866;2022-10-23T01:44:25;12.85;;;9.55;;
26181;SDS011;13927;51.534;11.866;2022-10-23T01:46:57;10.50;;;9.40;;
26181;SDS011;13927;51.534;11.866;2022-10-23T01:49:23;10.55;;;8.95;;
26181;SDS011;13927;51.534;11.866;2022-10-23T01:51:50;10.40;;;9.23;;
26181;SDS011;13927;51.534;11.866;2022-10-23T01:54:23;13.73;;;9.70;;
26181;SDS011;13927;51.534;11.866;2022-10-23T01:56:53;12.82;;;8.93;;
26181;SDS011;13927;51.534;11.866;2022-10-23T01:59:21;9.98;;;8.25;;
26181;SDS011;13927;51.534;11.866;2022-10-23T02:01:54;11.07;;;8.63;;
26181;SDS011;13927;51.534;11.866;2022-10-23T02:07:32;8.30;;;7.43;;
26181;SDS011;13927;51.534;11.866;2022-10-23T02:09:59;8.75;;;7.85;;
26181;SDS011;13927;51.534;11.866;2022-10-23T02:18:12;8.37;;;7.47;;
26181;SDS011;13927;51.534;11.866;2022-10-23T02:20:56;10.55;;;8.15;;
26181;SDS011;13927;51.534;11.866;2022-10-23T02:26:07;10.48;;;7.82;;
26181;SDS011;13927;51.534;11.866;2022-10-23T02:28:47;8.02;;;6.65;;
26181;SDS011;13927;51.534;11.866;2022-10-23T02:31:18;10.38;;;7.72;;
26181;SDS011;13927;51.534;11.866;2022-10-23T02:33:46;12.10;;;7.97;;
26181;SDS011;13927;51.534;11.866;2022-10-23T02:36:12;9.05;;;8.15;;
26181;SDS011;13927;51.534;11.866;2022-10-23T02:38:40;9.48;;;7.90;;
26181;SDS011;13927;51.534;11.866;2022-10-23T02:44:09;13.18;;;8.35;;
26181;SDS011;13927;51.534;11.866;2022-10-23T02:52:33;13.80;;;10.30;;
26181;SDS011;13927;51.534;11.866;2022-10-23T02:55:36;16.35;;;11.50;;
26181;SDS011;13927;51.534;11.866;2022-10-23T02:58:47;10.48;;;9.18;;
26181;SDS011;13927;51.534;11.866;2022-10-23T03:01:26;11.18;;;9.18;;
26181;SDS011;13927;51.534;11.866;2022-10-23T03:04:01;13.05;;;9.63;;
26181;SDS011;13927;51.534;11.866;2022-10-23T03:06:29;14.98;;;11.10;;
26181;SDS011;13927;51.534;11.866;2022-10-23T03:09:03;13.18;;;9.77;;
26181;SDS011;13927;51.534;11.866;2022-10-23T03:11:32;14.27;;;10.05;;
26181;SDS011;13927;51.534;11.866;2022-10-23T03:13:57;10.88;;;9.70;;
26181;SDS011;13927;51.534;11.866;2022-10-23T03:16:23;12.00;;;9.43;;
26181;SDS011;13927;51.534;11.866;2022-10-23T03:18:49;17.65;;;12.02;;
26181;SDS011;13927;51.534;11.866;2022-10-23T03:21:15;14.00;;;11.82;;
26181;SDS011;13927;51.534;11.866;2022-10-23T03:23:40;11.80;;;10.52;;
26181;SDS011;13927;51.534;11.866;2022-10-23T03:26:06;12.82;;;9.27;;
26181;SDS011;13927;51.534;11.866;2022-10-23T03:28:32;12.98;;;9.25;;
26181;SDS011;13927;51.534;11.866;2022-10-23T03:30:59;12.10;;;8.75;;
26181;SDS011;13927;51.534;11.866;2022-10-23T03:33:29;9.35;;;8.45;;
26181;SDS011;13927;51.534;11.866;2022-10-23T03:35:56;10.25;;;8.80;;
26181;SDS011;13927;51.534;11.866;2022-10-23T03:38:22;11.50;;;9.90;;
26181;SDS011;13927;51.534;11.866;2022-10-23T03:40:47;10.85;;;8.93;;
26181;SDS011;13927;51.534;11.866;2022-10-23T03:43:13;8.95;;;8.05;;
26181;SDS011;13927;51.534;11.866;2022-10-23T03:45:39;9.40;;;8.00;;
26181;SDS011;13927;51.534;11.866;2022-10-23T03:48:05;10.40;;;7.85;;
26181;SDS011;13927;51.534;11.866;2022-10-23T03:50:31;8.25;;;7.43;;
26181;SDS011;13927;51.534;11.866;2022-10-23T03:52:58;9.70;;;8.40;;
26181;SDS011;13927;51.534;11.866;2022-10-23T03:55:23;10.32;;;9.23;;
26181;SDS011;13927;51.534;11.866;2022-10-23T03:57:51;10.35;;;8.80;;
26181;SDS011;13927;51.534;11.866;2022-10-23T04:00:18;10.13;;;8.68;;
26181;SDS011;13927;51.534;11.866;2022-10-23T04:02:44;10.07;;;8.55;;
26181;SDS011;13927;51.534;11.866;2022-10-23T04:05:10;12.18;;;9.43;;
26181;SDS011;13927;51.534;11.866;2022-10-23T04:07:36;10.30;;;8.13;;
26181;SDS011;13927;51.534;11.866;2022-10-23T04:10:03;9.25;;;7.95;;
26181;SDS011;13927;51.534;11.866;2022-10-23T04:12:30;10.25;;;7.75;;
26181;SDS011;13927;51.534;11.866;2022-10-23T04:14:55;10.68;;;8.35;;
26181;SDS011;13927;51.534;11.866;2022-10-23T04:17:21;11.07;;;9.88;;
26181;SDS011;13927;51.534;11.866;2022-10-23T04:19:47;15.68;;;11.65;;
26181;SDS011;13927;51.534;11.866;2022-10-23T04:22:13;15.38;;;11.02;;
26181;SDS011;13927;51.534;11.866;2022-10-23T04:24:38;13.02;;;9.70;;
26181;SDS011;13927;51.534;11.866;2022-10-23T04:27:09;10.10;;;8.77;;
26181;SDS011;13927;51.534;11.866;2022-10-23T04:29:35;12.93;;;9.93;;
26181;SDS011;13927;51.534;11.866;2022-10-23T04:32:01;13.40;;;9.82;;
26181;SDS011;13927;51.534;11.866;2022-10-23T04:34:26;12.80;;;9.68;;
26181;SDS011;13927;51.534;11.866;2022-10-23T04:36:55;13.70;;;9.57;;
26181;SDS011;13927;51.534;11.866;2022-10-23T04:39:21;13.00;;;9.88;;
26181;SDS011;13927;51.534;11.866;2022-10-23T04:41:47;15.65;;;10.35;;
26181;SDS011;13927;51.534;11.866;2022-10-23T04:44:12;11.77;;;8.98;;
26181;SDS011;13927;51.534;11.866;2022-10-23T04:46:38;16.38;;;8.15;;
26181;SDS011;13927;51.534;11.866;2022-10-23T04:49:04;8.82;;;7.93;;
26181;SDS011;13927;51.534;11.866;2022-10-23T04:51:29;10.55;;;8.93;;
26181;SDS011;13927;51.534;11.866;2022-10-23T04:53:55;9.85;;;8.85;;
26181;SDS011;13927;51.534;11.866;2022-10-23T04:56:21;11.60;;;9.63;;
26181;SDS011;13927;51.534;11.866;2022-10-23T04:58:46;12.00;;;10.05;;
26181;SDS011;13927;51.534;11.866;2022-10-23T05:01:12;12.15;;;9.68;;
26181;SDS011;13927;51.534;11.866;2022-10-23T05:03:38;12.52;;;9.93;;
26181;SDS011;13927;51.534;11.866;2022-10-23T05:06:04;10.98;;;8.88;;
26181;SDS011;13927;51.534;11.866;2022-10-23T05:08:30;9.80;;;8.80;;
26181;SDS011;13927;51.534;11.866;2022-10-23T05:10:56;10.30;;;9.30;;
26181;SDS011;13927;51.534;11.866;2022-10-23T05:13:22;13.55;;;10.95;;
26181;SDS011;13927;51.534;11.866;2022-10-23T05:15:48;12.27;;;10.65;;
26181;SDS011;13927;51.534;11.866;2022-10-23T05:18:34;12.68;;;10.05;;
26181;SDS011;13927;51.534;11.866;2022-10-23T05:21:14;11.05;;;9.23;;
26181;SDS011;13927;51.534;11.866;2022-10-23T05:23:46;10.45;;;9.35;;
26181;SDS011;13927;51.534;11.866;2022-10-23T05:26:12;12.38;;;9.88;;
26181;SDS011;13927;51.534;11.866;2022-10-23T05:28:38;14.27;;;10.75;;
26181;SDS011;13927;51.534;11.866;2022-10-23T05:31:04;18.35;;;11.38;;
26181;SDS011;13927;51.534;11.866;2022-10-23T05:33:30;12.70;;;11.10;;
26181;SDS011;13927;51.534;11.866;2022-10-23T05:35:58;18.90;;;11.13;;
26181;SDS011;13927;51.534;11.866;2022-10-23T05:38:25;12.90;;;10.45;;
26181;SDS011;13927;51.534;11.866;2022-10-23T05:40:53;16.02;;;10.48;;
26181;SDS011;13927;51.534;11.866;2022-10-23T05:43:19;12.25;;;10.55;;
26181;SDS011;13927;51.534;11.866;2022-10-23T05:45:45;12.18;;;10.93;;
26181;SDS011;13927;51.534;11.866;2022-10-23T05:48:13;11.93;;;10.25;;
26181;SDS011;13927;51.534;11.866;2022-10-23T05:50:40;11.40;;;9.77;;
26181;SDS011;13927;51.534;11.866;2022-10-23T05:53:06;14.38;;;11.52;;
26181;SDS011;13927;51.534;11.866;2022-10-23T05:55:34;13.50;;;10.55;;
26181;SDS011;13927;51.534;11.866;2022-10-23T05:58:00;16.00;;;12.45;;
26181;SDS011;13927;51.534;11.866;2022-10-23T06:00:27;14.13;;;10.73;;
26181;SDS011;13927;51.534;11.866;2022-10-23T06:02:53;13.38;;;10.63;;
26181;SDS011;13927;51.534;11.866;2022-10-23T06:05:18;15.25;;;12.00;;
26181;SDS011;13927;51.534;11.866;2022-10-23T06:07:44;16.42;;;11.80;;
26181;SDS011;13927;51.534;11.866;2022-10-23T06:10:11;22.88;;;10.23;;
26181;SDS011;13927;51.534;11.866;2022-10-23T06:12:37;33.50;;;12.15;;
26181;SDS011;13927;51.534;11.866;2022-10-23T06:15:03;28.48;;;10.98;;
26181;SDS011;13927;51.534;11.866;2022-10-23T06:17:29;16.90;;;9.15;;
26181;SDS011;13927;51.534;11.866;2022-10-23T06:19:55;14.00;;;9.43;;
26181;SDS011;13927;51.534;11.866;2022-10-23T06:22:26;9.70;;;8.75;;
26181;SDS011;13927;51.534;11.866;2022-10-23T06:24:53;9.43;;;8.50;;
26181;SDS011;13927;51.534;11.866;2022-10-23T06:27:20;10.40;;;9.30;;
26181;SDS011;13927;51.534;11.866;2022-10-23T06:29:46;12.57;;;9.88;;
26181;SDS011;13927;51.534;11.866;2022-10-23T06:32:12;11.20;;;9.60;;
26181;SDS011;13927;51.534;11.866;2022-10-23T06:34:38;12.95;;;9.57;;
26181;SDS011;13927;51.534;11.866;2022-10-23T06:37:03;30.25;;;10.65;;
26181;SDS011;13927;51.534;11.866;2022-10-23T06:39:30;12.35;;;11.05;;
26181;SDS011;13927;51.534;11.866;2022-10-23T06:41:55;13.65;;;10.77;;
26181;SDS011;13927;51.534;11.866;2022-10-23T06:44:21;13.50;;;11.25;;
26181;SDS011;13927;51.534;11.866;2022-10-23T06:46:47;14.52;;;11.68;;
26181;SDS011;13927;51.534;11.866;2022-10-23T06:49:16;14.30;;;12.00;;
26181;SDS011;13927;51.534;11.866;2022-10-23T06:51:42;19.85;;;14.23;;
26181;SDS011;13927;51.534;11.866;2022-10-23T06:54:08;16.70;;;12.90;;
26181;SDS011;13927;51.534;11.866;2022-10-23T06:56:35;17.85;;;13.73;;
26181;SDS011;13927;51.534;11.866;2022-10-23T06:59:01;15.50;;;11.68;;
26181;SDS011;13927;51.534;11.866;2022-10-23T07:01:27;16.20;;;12.82;;
26181;SDS011;13927;51.534;11.866;2022-10-23T07:03:53;13.45;;;11.52;;
26181;SDS011;13927;51.534;11.866;2022-10-23T07:06:19;15.48;;;11.52;;
26181;SDS011;13927;51.534;11.866;2022-10-23T07:08:45;14.18;;;11.45;;
26181;SDS011;13927;51.534;11.866;2022-10-23T07:11:11;14.23;;;12.13;;
26181;SDS011;13927;51.534;11.866;2022-10-23T07:13:38;20.13;;;14.20;;
26181;SDS011;13927;51.534;11.866;2022-10-23T07:16:12;15.63;;;12.32;;
26181;SDS011;13927;51.534;11.866;2022-10-23T07:18:46;15.70;;;12.35;;
26181;SDS011;13927;51.534;11.866;2022-10-23T07:21:13;16.98;;;12.57;;
26181;SDS011;13927;51.534;11.866;2022-10-23T07:23:40;15.13;;;13.00;;
26181;SDS011;13927;51.534;11.866;2022-10-23T07:26:07;13.07;;;10.55;;
26181;SDS011;13927;51.534;11.866;2022-10-23T07:28:41;12.43;;;10.80;;
26181;SDS011;13927;51.534;11.866;2022-10-23T07:31:09;20.30;;;12.90;;
26181;SDS011;13927;51.534;11.866;2022-10-23T07:33:36;15.60;;;12.00;;
26181;SDS011;13927;51.534;11.866;2022-10-23T07:36:03;12.93;;;10.80;;
26181;SDS011;13927;51.534;11.866;2022-10-23T07:38:30;14.60;;;12.05;;
26181;SDS011;13927;51.534;11.866;2022-10-23T07:40:57;13.70;;;11.75;;
26181;SDS011;13927;51.534;11.866;2022-10-23T07:43:23;16.58;;;13.05;;
26181;SDS011;13927;51.534;11.866;2022-10-23T07:45:50;45.20;;;30.55;;
26181;SDS011;13927;51.534;11.866;2022-10-23T07:48:17;42.65;;;27.25;;
26181;SDS011;13927;51.534;11.866;2022-10-23T07:50:52;36.92;;;24.30;;
26181;SDS011;13927;51.534;11.866;2022-10-23T07:53:24;25.73;;;16.85;;
26181;SDS011;13927;51.534;11.866;2022-10-23T07:55:51;15.07;;;12.65;;
26181;SDS011;13927;51.534;11.866;2022-10-23T07:58:23;13.27;;;11.85;;
26181;SDS011;13927;51.534;11.866;2022-10-23T08:00:53;12.55;;;11.30;;
26181;SDS011;13927;51.534;11.866;2022-10-23T08:03:31;17.70;;;13.30;;
26181;SDS011;13927;51.534;11.866;2022-10-23T08:05:58;18.27;;;13.48;;
26181;SDS011;13927;51.534;11.866;2022-10-23T08:08:24;21.42;;;14.93;;
26181;SDS011;13927;51.534;11.866;2022-10-23T08:10:52;22.08;;;13.98;;
26181;SDS011;13927;51.534;11.866;2022-10-23T08:13:19;36.67;;;22.20;;
26181;SDS011;13927;51.534;11.866;2022-10-23T08:15:46;26.27;;;16.63;;
26181;SDS011;13927;51.534;11.866;2022-10-23T08:18:14;15.38;;;11.07;;
26181;SDS011;13927;51.534;11.866;2022-10-23T08:20:41;11.73;;;10.48;;
26181;SDS011;13927;51.534;11.866;2022-10-23T08:23:09;12.93;;;9.73;;
26181;SDS011;13927;51.534;11.866;2022-10-23T08:25:37;10.25;;;9.07;;
26181;SDS011;13927;51.534;11.866;2022-10-23T08:28:04;12.13;;;9.80;;
26181;SDS011;13927;51.534;11.866;2022-10-23T08:30:31;9.95;;;8.95;;
26181;SDS011;13927;51.534;11.866;2022-10-23T08:32:57;11.93;;;8.77;;
26181;SDS011;13927;51.534;11.866;2022-10-23T08:35:23;11.55;;;8.23;;
26181;SDS011;13927;51.534;11.866;2022-10-23T08:37:49;15.10;;;10.82;;
26181;SDS011;13927;51.534;11.866;2022-10-23T08:40:21;19.52;;;12.73;;
26181;SDS011;13927;51.534;11.866;2022-10-23T08:42:57;18.17;;;12.00;;
26181;SDS011;13927;51.534;11.866;2022-10-23T08:45:59;20.23;;;11.23;;
26181;SDS011;13927;51.534;11.866;2022-10-23T08:48:35;13.45;;;9.80;;
26181;SDS011;13927;51.534;11.866;2022-10-23T08:51:24;27.30;;;14.70;;
26181;SDS011;13927;51.534;11.866;2022-10-23T08:54:02;13.00;;;9.65;;
26181;SDS011;13927;51.534;11.866;2022-10-23T08:56:37;10.55;;;9.02;;
26181;SDS011;13927;51.534;11.866;2022-10-23T08:59:27;10.95;;;8.82;;
26181;SDS011;13927;51.534;11.866;2022-10-23T09:03:11;20.58;;;13.10;;
26181;SDS011;13927;51.534;11.866;2022-10-23T09:19:17;12.10;;;8.50;;
26181;SDS011;13927;51.534;11.866;2022-10-23T09:21:50;11.23;;;8.32;;
26181;SDS011;13927;51.534;11.866;2022-10-23T09:24:19;10.13;;;6.68;;
26181;SDS011;13927;51.534;11.866;2022-10-23T09:26:49;7.00;;;6.13;;
26181;SDS011;13927;51.534;11.866;2022-10-23T09:29:20;8.50;;;6.10;;
26181;SDS011;13927;51.534;11.866;2022-10-23T09:31:55;9.13;;;8.15;;
26181;SDS011;13927;51.534;11.866;2022-10-23T09:34:25;9.23;;;7.00;;
26181;SDS011;13927;51.534;11.866;2022-10-23T09:36:58;6.90;;;4.78;;
26181;SDS011;13927;51.534;11.866;2022-10-23T09:40:18;8.75;;;4.57;;
26181;SDS011;13927;51.534;11.866;2022-10-23T09:43:11;7.80;;;4.32;;
26181;SDS011;13927;51.534;11.866;2022-10-23T09:45:41;9.05;;;5.25;;
26181;SDS011;13927;51.534;11.866;2022-10-23T09:48:16;7.38;;;5.68;;
26181;SDS011;13927;51.534;11.866;2022-10-23T09:50:51;7.20;;;4.57;;
26181;SDS011;13927;51.534;11.866;2022-10-23T09:56:05;6.55;;;3.90;;
26181;SDS011;13927;51.534;11.866;2022-10-23T09:58:52;6.40;;;4.28;;
26181;SDS011;13927;51.534;11.866;2022-10-23T10:01:33;5.63;;;3.78;;
26181;SDS011;13927;51.534;11.866;2022-10-23T10:04:12;3.97;;;3.17;;
26181;SDS011;13927;51.534;11.866;2022-10-23T10:06:38;4.75;;;3.03;;
26181;SDS011;13927;51.534;11.866;2022-10-23T10:09:06;5.68;;;2.88;;
26181;SDS011;13927;51.534;11.866;2022-10-23T10:11:43;5.03;;;2.53;;
26181;SDS011;13927;51.534;11.866;2022-10-23T10:14:25;4.93;;;2.78;;
26181;SDS011;13927;51.534;11.866;2022-10-23T10:20:32;4.28;;;2.70;;
26181;SDS011;13927;51.534;11.866;2022-10-23T10:40:49;2.88;;;2.05;;
26181;SDS011;13927;51.534;11.866;2022-10-23T10:46:43;3.53;;;2.30;;
26181;SDS011;13927;51.534;11.866;2022-10-23T10:55:10;4.68;;;1.73;;
26181;SDS011;13927;51.534;11.866;2022-10-23T10:58:00;3.90;;;1.80;;
26181;SDS011;13927;51.534;11.866;2022-10-23T11:00:32;3.28;;;1.65;;
26181;SDS011;13927;51.534;11.866;2022-10-23T11:05:32;4.40;;;1.90;;
26181;SDS011;13927;51.534;11.866;2022-10-23T11:10:45;4.90;;;1.95;;
26181;SDS011;13927;51.534;11.866;2022-10-23T11:13:35;4.45;;;1.83;;
26181;SDS011;13927;51.534;11.866;2022-10-23T11:16:09;8.68;;;2.45;;
26181;SDS011;13927;51.534;11.866;2022-10-23T11:19:23;3.47;;;1.65;;
26181;SDS011;13927;51.534;11.866;2022-10-23T11:36:31;5.00;;;1.80;;
26181;SDS011;13927;51.534;11.866;2022-10-23T11:39:17;4.05;;;1.65;;
26181;SDS011;13927;51.534;11.866;2022-10-23T11:44:39;5.53;;;1.70;;
26181;SDS011;13927;51.534;11.866;2022-10-23T11:52:36;2.70;;;1.60;;
26181;SDS011;13927;51.534;11.866;2022-10-23T11:57:58;3.38;;;1.63;;
26181;SDS011;13927;51.534;11.866;2022-10-23T12:01:03;4.40;;;1.73;;
26181;SDS011;13927;51.534;11.866;2022-10-23T12:04:01;3.58;;;1.77;;
26181;SDS011;13927;51.534;11.866;2022-10-23T12:06:38;2.35;;;1.85;;
26181;SDS011;13927;51.534;11.866;2022-10-23T12:09:29;5.40;;;2.10;;
26181;SDS011;13927;51.534;11.866;2022-10-23T12:14:37;4.93;;;2.30;;
26181;SDS011;13927;51.534;11.866;2022-10-23T12:19:53;3.38;;;1.77;;
26181;SDS011;13927;51.534;11.866;2022-10-23T12:22:55;3.00;;;1.95;;
26181;SDS011;13927;51.534;11.866;2022-10-23T12:41:30;3.55;;;2.00;;
26181;SDS011;13927;51.534;11.866;2022-10-23T12:43:55;3.22;;;2.17;;
26181;SDS011;13927;51.534;11.866;2022-10-23T12:48:55;6.68;;;2.60;;
26181;SDS011;13927;51.534;11.866;2022-10-23T12:51:27;5.43;;;3.80;;
26181;SDS011;13927;51.534;11.866;2022-10-23T12:53:57;6.93;;;5.65;;
26181;SDS011;13927;51.534;11.866;2022-10-23T12:56:24;7.72;;;4.75;;
26181;SDS011;13927;51.534;11.866;2022-10-23T12:58:53;6.68;;;3.85;;
26181;SDS011;13927;51.534;11.866;2022-10-23T13:01:25;3.83;;;2.63;;
26181;SDS011;13927;51.534;11.866;2022-10-23T13:04:04;3.05;;;2.60;;
26181;SDS011;13927;51.534;11.866;2022-10-23T13:06:41;5.35;;;2.50;;
26181;SDS011;13927;51.534;11.866;2022-10-23T13:09:14;4.15;;;2.63;;
26181;SDS011;13927;51.534;11.866;2022-10-23T13:12:06;3.83;;;1.80;;
26181;SDS011;13927;51.534;11.866;2022-10-23T13:14:53;5.43;;;2.33;;
26181;SDS011;13927;51.534;11.866;2022-10-23T13:17:35;4.60;;;2.03;;
26181;SDS011;13927;51.534;11.866;2022-10-23T13:22:45;2.70;;;1.85;;
26181;SDS011;13927;51.534;11.866;2022-10-23T13:25:23;4.88;;;2.53;;
26181;SDS011;13927;51.534;11.866;2022-10-23T13:31:47;2.55;;;1.88;;
26181;SDS011;13927;51.534;11.866;2022-10-23T13:33:42;2.92;;;2.03;;
26181;SDS011;13927;51.534;11.866;2022-10-23T13:38:44;4.15;;;1.92;;
26181;SDS011;13927;51.534;11.866;2022-10-23T13:41:22;4.22;;;2.25;;
26181;SDS011;13927;51.534;11.866;2022-10-23T13:43:51;2.92;;;1.83;;
26181;SDS011;13927;51.534;11.866;2022-10-23T13:46:17;4.25;;;2.63;;
26181;SDS011;13927;51.534;11.866;2022-10-23T13:48:46;3.17;;;2.60;;
26181;SDS011;13927;51.534;11.866;2022-10-23T13:51:14;4.22;;;2.65;;
26181;SDS011;13927;51.534;11.866;2022-10-23T13:53:53;2.60;;;2.20;;
26181;SDS011;13927;51.534;11.866;2022-10-23T13:56:20;3.28;;;2.50;;
26181;SDS011;13927;51.534;11.866;2022-10-23T13:58:48;3.50;;;2.13;;
26181;SDS011;13927;51.534;11.866;2022-10-23T14:01:30;2.40;;;1.73;;
26181;SDS011;13927;51.534;11.866;2022-10-23T14:03:59;2.38;;;2.05;;
26181;SDS011;13927;51.534;11.866;2022-10-23T14:06:27;2.65;;;2.28;;
26181;SDS011;13927;51.534;11.866;2022-10-23T14:08:54;3.08;;;2.33;;
26181;SDS011;13927;51.534;11.866;2022-10-23T14:11:20;4.13;;;2.90;;
26181;SDS011;13927;51.534;11.866;2022-10-23T14:13:46;3.10;;;2.30;;
26181;SDS011;13927;51.534;11.866;2022-10-23T14:16:15;2.60;;;2.20;;
26181;SDS011;13927;51.534;11.866;2022-10-23T14:18:43;3.55;;;2.75;;
26181;SDS011;13927;51.534;11.866;2022-10-23T14:21:12;4.35;;;3.17;;
26181;SDS011;13927;51.534;11.866;2022-10-23T14:23:42;3.03;;;2.65;;
26181;SDS011;13927;51.534;11.866;2022-10-23T14:26:08;3.67;;;2.63;;
26181;SDS011;13927;51.534;11.866;2022-10-23T14:28:37;3.85;;;3.13;;
26181;SDS011;13927;51.534;11.866;2022-10-23T14:31:06;5.47;;;3.25;;
26181;SDS011;13927;51.534;11.866;2022-10-23T14:33:35;6.65;;;6.05;;
26181;SDS011;13927;51.534;11.866;2022-10-23T14:36:01;4.78;;;3.78;;
26181;SDS011;13927;51.534;11.866;2022-10-23T14:38:27;4.15;;;3.47;;
26181;SDS011;13927;51.534;11.866;2022-10-23T14:40:53;4.40;;;3.45;;
26181;SDS011;13927;51.534;11.866;2022-10-23T14:43:19;4.00;;;3.30;;
26181;SDS011;13927;51.534;11.866;2022-10-23T14:45:46;4.70;;;3.65;;
26181;SDS011;13927;51.534;11.866;2022-10-23T14:48:11;5.10;;;3.70;;
26181;SDS011;13927;51.534;11.866;2022-10-23T14:50:41;4.22;;;3.50;;
26181;SDS011;13927;51.534;11.866;2022-10-23T14:53:10;5.90;;;3.67;;
26181;SDS011;13927;51.534;11.866;2022-10-23T14:55:36;3.78;;;3.05;;
26181;SDS011;13927;51.534;11.866;2022-10-23T14:58:02;5.07;;;2.65;;
26181;SDS011;13927;51.534;11.866;2022-10-23T15:00:28;5.90;;;3.58;;
26181;SDS011;13927;51.534;11.866;2022-10-23T15:02:54;5.50;;;4.88;;
26181;SDS011;13927;51.534;11.866;2022-10-23T15:05:20;5.13;;;4.00;;
26181;SDS011;13927;51.534;11.866;2022-10-23T15:07:46;4.55;;;3.30;;
26181;SDS011;13927;51.534;11.866;2022-10-23T15:10:12;5.45;;;2.83;;
26181;SDS011;13927;51.534;11.866;2022-10-23T15:12:38;4.45;;;3.10;;
26181;SDS011;13927;51.534;11.866;2022-10-23T15:15:04;4.07;;;3.13;;
26181;SDS011;13927;51.534;11.866;2022-10-23T15:17:31;4.55;;;3.60;;
26181;SDS011;13927;51.534;11.866;2022-10-23T15:19:58;5.20;;;2.97;;
26181;SDS011;13927;51.534;11.866;2022-10-23T15:22:25;3.97;;;3.58;;
26181;SDS011;13927;51.534;11.866;2022-10-23T15:24:51;4.47;;;3.55;;
26181;SDS011;13927;51.534;11.866;2022-10-23T15:27:17;3.78;;;3.25;;
26181;SDS011;13927;51.534;11.866;2022-10-23T15:29:43;4.10;;;3.53;;
26181;SDS011;13927;51.534;11.866;2022-10-23T15:32:09;4.07;;;2.33;;
26181;SDS011;13927;51.534;11.866;2022-10-23T15:34:36;3.30;;;2.40;;
26181;SDS011;13927;51.534;11.866;2022-10-23T15:37:05;4.20;;;2.40;;
26181;SDS011;13927;51.534;11.866;2022-10-23T15:39:34;4.10;;;2.38;;
26181;SDS011;13927;51.534;11.866;2022-10-23T15:42:01;3.13;;;2.22;;
26181;SDS011;13927;51.534;11.866;2022-10-23T15:44:29;3.63;;;2.38;;
26181;SDS011;13927;51.534;11.866;2022-10-23T15:46:57;3.53;;;2.30;;
26181;SDS011;13927;51.534;11.866;2022-10-23T15:49:23;3.60;;;2.30;;
26181;SDS011;13927;51.534;11.866;2022-10-23T15:51:50;6.35;;;2.85;;
26181;SDS011;13927;51.534;11.866;2022-10-23T15:54:17;5.80;;;2.40;;
26181;SDS011;13927;51.534;11.866;2022-10-23T15:56:45;3.63;;;2.10;;
26181;SDS011;13927;51.534;11.866;2022-10-23T15:59:17;4.10;;;2.67;;
26181;SDS011;13927;51.534;11.866;2022-10-23T16:01:45;3.00;;;2.42;;
26181;SDS011;13927;51.534;11.866;2022-10-23T16:04:12;4.43;;;2.95;;
26181;SDS011;13927;51.534;11.866;2022-10-23T16:06:38;3.45;;;2.50;;
26181;SDS011;13927;51.534;11.866;2022-10-23T16:09:04;2.97;;;2.40;;
26181;SDS011;13927;51.534;11.866;2022-10-23T16:11:32;6.20;;;2.95;;
26181;SDS011;13927;51.534;11.866;2022-10-23T16:13:59;5.50;;;3.17;;
26181;SDS011;13927;51.534;11.866;2022-10-23T16:16:27;6.22;;;3.00;;
26181;SDS011;13927;51.534;11.866;2022-10-23T16:18:53;4.45;;;3.63;;
26181;SDS011;13927;51.534;11.866;2022-10-23T16:21:20;5.10;;;3.13;;
26181;SDS011;13927;51.534;11.866;2022-10-23T16:23:49;4.78;;;3.35;;
26181;SDS011;13927;51.534;11.866;2022-10-23T16:26:16;5.00;;;3.15;;
26181;SDS011;13927;51.534;11.866;2022-10-23T16:28:43;6.70;;;3.53;;
26181;SDS011;13927;51.534;11.866;2022-10-23T16:31:13;7.18;;;3.30;;
26181;SDS011;13927;51.534;11.866;2022-10-23T16:33:42;5.35;;;3.67;;
26181;SDS011;13927;51.534;11.866;2022-10-23T16:36:08;4.88;;;3.28;;
26181;SDS011;13927;51.534;11.866;2022-10-23T16:38:35;5.55;;;3.30;;
26181;SDS011;13927;51.534;11.866;2022-10-23T16:41:01;6.00;;;3.22;;
26181;SDS011;13927;51.534;11.866;2022-10-23T16:43:27;4.53;;;2.80;;
26181;SDS011;13927;51.534;11.866;2022-10-23T16:48:35;4.57;;;2.50;;
26181;SDS011;13927;51.534;11.866;2022-10-23T16:51:05;7.18;;;3.05;;
26181;SDS011;13927;51.534;11.866;2022-10-23T16:53:33;4.45;;;3.00;;
26181;SDS011;13927;51.534;11.866;2022-10-23T16:55:59;3.55;;;2.70;;
26181;SDS011;13927;51.534;11.866;2022-10-23T16:58:29;4.25;;;2.95;;
26181;SDS011;13927;51.534;11.866;2022-10-23T17:00:56;6.70;;;2.83;;
26181;SDS011;13927;51.534;11.866;2022-10-23T17:03:24;5.50;;;2.90;;
26181;SDS011;13927;51.534;11.866;2022-10-23T17:05:49;4.10;;;2.53;;
26181;SDS011;13927;51.534;11.866;2022-10-23T17:08:15;5.57;;;3.03;;
26181;SDS011;13927;51.534;11.866;2022-10-23T17:10:41;4.93;;;2.85;;
26181;SDS011;13927;51.534;11.866;2022-10-23T17:13:07;4.03;;;2.80;;
26181;SDS011;13927;51.534;11.866;2022-10-23T17:15:33;4.35;;;2.38;;